createdAt,value
2018-07-23T00:02:22.093Z,65.20
2018-07-23T00:05:25.947Z,65.40
2018-07-23T00:08:29.838Z,64.80
2018-07-23T00:11:34.116Z,65.80
2018-07-23T00:14:37.982Z,65.60
2018-07-23T00:17:41.882Z,66.00
2018-07-23T00:20:45.913Z,66.10
2018-07-23T00:23:49.813Z,64.90
2018-07-23T00:26:53.743Z,63.90
2018-07-23T00:29:57.617Z,64.10
2018-07-23T00:33:01.546Z,64.50
2018-07-23T00:36:05.537Z,64.80
2018-07-23T00:39:09.786Z,65.10
2018-07-23T00:42:13.667Z,64.30
2018-07-23T00:45:17.574Z,65.50
2018-07-23T00:48:21.561Z,65.50
2018-07-23T00:51:25.546Z,66.20
2018-07-23T00:54:29.537Z,65.80
2018-07-23T00:57:33.467Z,66.20
2018-07-23T01:00:37.376Z,66.00
2018-07-23T01:03:41.342Z,65.40
2018-07-23T01:06:45.180Z,65.20
2018-07-23T01:09:49.112Z,64.90
2018-07-23T01:12:53.296Z,65.20
2018-07-23T01:15:57.197Z,65.40
2018-07-23T01:19:01.091Z,65.90
2018-07-23T01:22:05.045Z,66.20
2018-07-23T01:25:08.954Z,67.00
2018-07-23T01:28:12.850Z,67.50
2018-07-23T01:31:17.313Z,67.00
2018-07-23T01:34:21.278Z,68.30
2018-07-23T01:37:25.181Z,70.10
2018-07-23T01:40:29.118Z,67.70
2018-07-23T01:43:33.162Z,68.10
2018-07-23T01:46:37.094Z,67.90
2018-07-23T01:49:41.057Z,67.40
2018-07-23T01:52:44.960Z,68.20
2018-07-23T01:55:48.892Z,68.90
2018-07-23T01:58:52.790Z,69.20
2018-07-23T02:01:56.845Z,69.20
2018-07-23T02:05:00.727Z,68.90
2018-07-23T02:08:04.747Z,69.50
2018-07-23T02:11:08.616Z,69.70
2018-07-23T02:14:12.594Z,69.60
2018-07-23T02:17:16.505Z,70.00
2018-07-23T02:20:20.460Z,70.50
2018-07-23T02:23:24.406Z,70.80
2018-07-23T02:26:28.339Z,71.70
2018-07-23T02:29:32.248Z,71.70
2018-07-23T02:32:36.149Z,72.10
2018-07-23T02:35:40.051Z,72.40
2018-07-23T02:38:43.966Z,72.80
2018-07-23T02:41:47.853Z,73.00
2018-07-23T02:44:51.758Z,73.20
2018-07-23T02:47:55.708Z,74.00
2018-07-23T02:50:59.569Z,74.70
2018-07-23T02:54:03.522Z,73.50
2018-07-23T02:57:07.430Z,73.30
2018-07-23T03:00:11.547Z,73.60
2018-07-23T03:03:15.525Z,73.80
2018-07-23T03:06:19.394Z,74.20
2018-07-23T03:09:23.480Z,74.50
2018-07-23T03:12:27.410Z,75.00
2018-07-23T03:15:31.390Z,75.50
2018-07-23T03:18:35.321Z,75.80
2018-07-23T03:21:39.253Z,75.30
2018-07-23T03:24:43.129Z,75.50
2018-07-23T03:27:47.036Z,75.70
2018-07-23T03:30:50.997Z,76.00
2018-07-23T03:33:54.995Z,76.00
2018-07-23T03:36:58.949Z,76.10
2018-07-23T03:40:02.860Z,76.10
2018-07-23T03:43:06.845Z,75.80
2018-07-23T03:46:10.711Z,75.90
2018-07-23T03:49:14.667Z,75.90
2018-07-23T03:52:18.629Z,76.80
2018-07-23T03:55:22.561Z,76.40
2018-07-23T03:58:26.522Z,76.80
2018-07-23T04:01:30.417Z,76.60
2018-07-23T04:04:34.332Z,76.60
2018-07-23T04:07:38.216Z,76.40
2018-07-23T04:10:42.201Z,76.40
2018-07-23T04:13:46.091Z,76.80
2018-07-23T04:16:50.047Z,76.60
2018-07-23T04:19:54.073Z,76.20
2018-07-23T04:22:58.188Z,76.70
2018-07-23T04:26:02.070Z,75.70
2018-07-23T04:29:06.090Z,75.10
2018-07-23T04:32:10.074Z,74.20
2018-07-23T04:35:14.090Z,74.80
2018-07-23T04:38:17.964Z,74.90
2018-07-23T04:41:21.884Z,74.80
2018-07-23T04:44:25.718Z,75.40
2018-07-23T04:47:29.629Z,74.80
2018-07-23T04:50:33.475Z,75.60
2018-07-23T04:53:37.393Z,76.20
2018-07-23T04:56:41.313Z,76.20
2018-07-23T04:59:45.196Z,76.50
2018-07-23T05:02:49.061Z,77.40
2018-07-23T05:05:53.724Z,77.00
2018-07-23T05:08:57.757Z,78.00
2018-07-23T05:12:01.719Z,78.10
2018-07-23T05:15:05.738Z,77.90
2018-07-23T05:18:09.690Z,77.50
2018-07-23T05:21:13.574Z,77.90
2018-07-23T05:24:18.444Z,77.90
2018-07-23T05:27:22.378Z,77.60
2018-07-23T05:30:26.300Z,77.80
2018-07-23T05:33:30.190Z,78.00
2018-07-23T05:36:34.101Z,77.60
2018-07-23T05:39:38.019Z,77.60
2018-07-23T05:42:41.919Z,77.10
2018-07-23T05:45:45.795Z,77.40
2018-07-23T05:48:49.732Z,77.70
2018-07-23T05:51:53.737Z,77.30
2018-07-23T05:54:57.718Z,76.90
2018-07-23T05:58:01.688Z,76.70
2018-07-23T06:01:05.644Z,76.70
2018-07-23T06:04:09.602Z,76.40
2018-07-23T06:07:13.494Z,76.30
2018-07-23T06:10:17.558Z,75.80
2018-07-23T06:13:21.504Z,75.50
2018-07-23T06:16:25.391Z,75.10
2018-07-23T06:19:29.624Z,75.40
2018-07-23T06:22:33.529Z,76.10
2018-07-23T06:25:37.489Z,76.10
2018-07-23T06:28:41.433Z,76.30
2018-07-23T06:31:45.333Z,75.90
2018-07-23T06:34:50.191Z,76.20
2018-07-23T06:37:54.154Z,76.50
2018-07-23T06:40:58.084Z,76.70
2018-07-23T06:44:02.047Z,76.90
2018-07-23T06:47:05.958Z,77.00
2018-07-23T06:50:09.876Z,77.40
2018-07-23T06:53:13.908Z,77.10
2018-07-23T06:56:17.949Z,77.20
2018-07-23T06:59:22.140Z,76.80
2018-07-23T07:02:26.137Z,76.70
2018-07-23T07:05:30.117Z,76.80
2018-07-23T07:08:34.036Z,77.00
2018-07-23T07:11:38.262Z,76.20
2018-07-23T07:14:42.175Z,75.40
2018-07-23T07:17:46.379Z,74.90
2018-07-23T07:20:50.391Z,74.10
2018-07-23T07:23:54.316Z,71.40
2018-07-23T07:26:58.252Z,71.70
2018-07-23T07:30:02.224Z,71.70
2018-07-23T07:33:06.506Z,72.30
2018-07-23T07:36:10.693Z,72.00
2018-07-23T07:39:15.253Z,71.40
2018-07-23T07:42:19.277Z,69.20
2018-07-23T07:45:23.231Z,70.00
2018-07-23T07:48:27.132Z,70.20
2018-07-23T07:51:31.264Z,69.30
2018-07-23T07:54:35.316Z,68.80
2018-07-23T07:57:39.227Z,67.70
2018-07-23T08:00:43.121Z,63.20
2018-07-23T08:03:47.132Z,63.90
2018-07-23T08:06:51.057Z,64.10
2018-07-23T08:09:54.944Z,59.70
2018-07-23T08:12:58.838Z,59.00
2018-07-23T08:16:02.744Z,53.80
2018-07-23T08:19:06.588Z,50.60
2018-07-23T08:22:10.517Z,49.50
2018-07-23T08:25:14.408Z,48.20
2018-07-23T08:28:18.326Z,48.10
2018-07-23T08:31:22.234Z,47.40
2018-07-23T08:34:26.150Z,46.90
2018-07-23T08:37:30.120Z,46.50
2018-07-23T08:40:34.099Z,48.10
2018-07-23T08:43:38.097Z,48.70
2018-07-23T08:46:42.107Z,49.90
2018-07-23T08:49:46.116Z,50.60
2018-07-23T08:52:49.981Z,51.50
2018-07-23T08:55:54.045Z,51.20
2018-07-23T08:58:58.056Z,51.30
2018-07-23T09:02:02.029Z,51.60
2018-07-23T09:05:06.003Z,52.40
2018-07-23T09:08:09.891Z,52.90
2018-07-23T09:11:13.787Z,53.20
2018-07-23T09:14:17.682Z,52.40
2018-07-23T09:17:21.723Z,52.40
2018-07-23T09:20:25.661Z,52.00
2018-07-23T09:23:29.517Z,51.40
2018-07-23T09:26:33.461Z,51.80
2018-07-23T09:29:37.377Z,51.70
2018-07-23T09:32:41.256Z,51.60
2018-07-23T09:35:45.224Z,52.20
2018-07-23T09:38:49.176Z,51.10
2018-07-23T09:41:53.212Z,51.90
2018-07-23T09:44:57.226Z,51.70
2018-07-23T09:48:01.140Z,52.40
2018-07-23T09:51:05.115Z,53.10
2018-07-23T09:54:08.996Z,52.10
2018-07-23T09:57:12.923Z,53.40
2018-07-23T10:00:21.026Z,54.40
2018-07-23T10:03:25.067Z,54.90
2018-07-23T10:06:28.906Z,56.20
2018-07-23T10:09:32.774Z,57.10
2018-07-23T10:12:36.783Z,57.90
2018-07-23T10:15:40.703Z,57.90
2018-07-23T10:18:44.610Z,58.50
2018-07-23T10:21:48.543Z,57.60
2018-07-23T10:24:52.509Z,56.00
2018-07-23T10:27:56.470Z,55.60
2018-07-23T10:31:00.434Z,55.60
2018-07-23T10:34:04.415Z,54.70
2018-07-23T10:37:08.338Z,54.90
2018-07-23T10:40:12.252Z,54.90
2018-07-23T10:43:16.181Z,53.60
2018-07-23T10:46:20.081Z,52.90
2018-07-23T10:49:24.170Z,53.20
2018-07-23T10:52:28.094Z,53.00
2018-07-23T10:55:32.023Z,53.40
2018-07-23T10:58:36.040Z,53.70
2018-07-23T11:01:39.996Z,53.60
2018-07-23T11:04:43.950Z,53.40
2018-07-23T11:07:47.909Z,53.30
2018-07-23T11:10:51.814Z,53.30
2018-07-23T11:13:55.737Z,53.50
2018-07-23T11:16:59.735Z,54.50
2018-07-23T11:20:04.065Z,55.00
2018-07-23T11:23:08.022Z,55.80
2018-07-23T11:26:11.961Z,54.50
2018-07-23T11:29:15.872Z,55.30
2018-07-23T11:32:19.798Z,54.50
2018-07-23T11:35:23.703Z,53.80
2018-07-23T11:38:27.725Z,54.20
2018-07-23T11:41:31.793Z,53.20
2018-07-23T11:44:35.765Z,52.70
2018-07-23T11:47:39.762Z,52.20
2018-07-23T11:50:43.745Z,51.60
2018-07-23T11:53:47.664Z,53.10
2018-07-23T11:56:51.657Z,52.70
2018-07-23T11:59:55.559Z,52.20
2018-07-23T12:02:59.704Z,52.40
2018-07-23T12:06:03.622Z,52.60
2018-07-23T12:09:09.501Z,52.80
2018-07-23T12:12:13.403Z,53.10
2018-07-23T12:15:17.390Z,54.60
2018-07-23T12:18:21.337Z,55.60
2018-07-23T12:21:25.243Z,55.00
2018-07-23T12:24:29.430Z,54.80
2018-07-23T12:27:33.766Z,55.10
2018-07-23T12:30:37.808Z,55.00
2018-07-23T12:33:41.727Z,54.80
2018-07-23T12:36:45.757Z,55.40
2018-07-23T12:39:49.743Z,56.00
2018-07-23T12:42:53.711Z,56.40
2018-07-23T12:45:57.716Z,57.20
2018-07-23T12:49:01.731Z,56.60
2018-07-23T12:52:05.714Z,57.40
2018-07-23T12:55:09.693Z,58.20
2018-07-23T12:58:13.802Z,58.70
2018-07-23T13:01:17.820Z,58.90
2018-07-23T13:04:21.807Z,58.70
2018-07-23T13:07:25.799Z,58.80
2018-07-23T13:10:29.727Z,59.30
2018-07-23T13:13:39.927Z,58.90
2018-07-23T13:16:43.883Z,59.40
2018-07-23T13:19:48.624Z,58.60
2018-07-23T13:22:52.612Z,58.00
2018-07-23T13:25:56.504Z,56.90
2018-07-23T13:29:00.469Z,56.70
2018-07-23T13:32:04.371Z,56.70
2018-07-23T13:35:08.338Z,56.70
2018-07-23T13:38:12.334Z,57.20
2018-07-23T13:41:16.199Z,57.10
2018-07-23T13:44:20.222Z,57.50
2018-07-23T13:47:24.172Z,57.50
2018-07-23T13:50:28.111Z,57.70
2018-07-23T13:53:31.989Z,57.70
2018-07-23T13:56:35.914Z,58.00
2018-07-23T13:59:39.846Z,57.70
2018-07-23T14:02:43.744Z,57.10
2018-07-23T14:05:48.536Z,57.10
2018-07-23T14:08:52.435Z,55.90
2018-07-23T14:11:56.466Z,55.20
2018-07-23T14:15:00.351Z,53.40
2018-07-23T14:18:04.315Z,53.70
2018-07-23T14:21:08.594Z,53.20
2018-07-23T14:24:12.632Z,52.70
2018-07-23T14:27:16.543Z,51.80
2018-07-23T14:30:20.543Z,52.10
2018-07-23T14:33:24.500Z,52.60
2018-07-23T14:36:28.369Z,52.70
2018-07-23T14:39:32.249Z,51.70
2018-07-23T14:42:36.159Z,50.40
2018-07-23T14:45:40.052Z,50.80
2018-07-23T14:48:44.014Z,50.80
2018-07-23T14:51:48.068Z,50.30
2018-07-23T14:54:52.024Z,50.10
2018-07-23T14:57:56.039Z,50.50
2018-07-23T15:01:00.021Z,50.00
2018-07-23T15:04:03.942Z,49.80
2018-07-23T15:07:08.314Z,50.30
2018-07-23T15:10:12.300Z,50.20
2018-07-23T15:13:16.213Z,49.30
2018-07-23T15:16:20.191Z,49.20
2018-07-23T15:19:24.773Z,49.20
2018-07-23T15:22:28.713Z,49.10
2018-07-23T15:25:32.743Z,49.60
2018-07-23T15:28:36.663Z,49.50
2018-07-23T15:31:40.619Z,49.30
2018-07-23T15:34:44.560Z,48.60
2018-07-23T15:37:48.545Z,48.90
2018-07-23T15:40:52.635Z,48.50
2018-07-23T15:43:56.703Z,49.10
2018-07-23T15:47:00.597Z,49.30
2018-07-23T15:50:04.692Z,48.60
2018-07-23T15:53:08.790Z,49.10
2018-07-23T15:56:12.734Z,48.70
2018-07-23T15:59:16.600Z,48.70
2018-07-23T16:02:20.598Z,47.60
2018-07-23T16:05:24.613Z,47.60
2018-07-23T16:08:28.468Z,47.80
2018-07-23T16:11:32.538Z,47.10
2018-07-23T16:14:36.536Z,47.40
2018-07-23T16:17:40.587Z,46.80
2018-07-23T16:20:44.572Z,47.30
2018-07-23T16:23:48.481Z,47.40
2018-07-23T16:26:52.453Z,47.30
2018-07-23T16:29:56.434Z,47.30
2018-07-23T16:33:00.339Z,47.40
2018-07-23T16:36:04.311Z,47.60
2018-07-23T16:39:10.599Z,47.80
2018-07-23T16:42:14.556Z,47.60
2018-07-23T16:45:18.486Z,47.50
2018-07-23T16:48:22.450Z,47.20
2018-07-23T16:51:26.639Z,47.00
2018-07-23T16:54:30.608Z,48.00
2018-07-23T16:57:34.662Z,47.10
2018-07-23T17:00:38.612Z,46.90
2018-07-23T17:03:42.933Z,46.70
2018-07-23T17:06:46.867Z,47.00
2018-07-23T17:09:50.818Z,46.90
2018-07-23T17:12:54.724Z,46.50
2018-07-23T17:15:58.995Z,46.30
2018-07-23T17:19:03.305Z,46.50
2018-07-23T17:22:07.279Z,46.30
2018-07-23T17:25:11.216Z,46.30
2018-07-23T17:28:15.209Z,46.70
2018-07-23T17:31:19.140Z,47.00
2018-07-23T17:34:23.250Z,46.90
2018-07-23T17:37:27.249Z,47.40
2018-07-23T17:40:31.184Z,47.30
2018-07-23T17:43:35.177Z,47.40
2018-07-23T17:46:39.264Z,47.40
2018-07-23T17:49:43.213Z,47.10
2018-07-23T17:52:47.134Z,47.50
2018-07-23T17:55:51.117Z,47.60
2018-07-23T17:58:55.135Z,48.00
2018-07-23T18:01:59.135Z,48.50
2018-07-23T18:05:03.177Z,48.80
2018-07-23T18:08:07.299Z,49.50
2018-07-23T18:11:11.284Z,49.90
2018-07-23T18:14:15.244Z,50.10
2018-07-23T18:17:19.528Z,51.20
2018-07-23T18:20:23.624Z,52.50
2018-07-23T18:23:27.640Z,52.00
2018-07-23T18:26:31.571Z,52.10
2018-07-23T18:29:35.546Z,52.90
2018-07-23T18:32:39.512Z,53.10
2018-07-23T18:35:43.470Z,53.90
2018-07-23T18:38:47.561Z,54.30
2018-07-23T18:41:51.516Z,54.90
2018-07-23T18:44:55.411Z,55.10
2018-07-23T18:47:59.466Z,55.60
2018-07-23T18:51:03.479Z,55.90
2018-07-23T18:54:07.363Z,56.40
2018-07-23T18:57:11.639Z,56.70
2018-07-23T19:00:15.641Z,57.30
2018-07-23T19:03:19.891Z,57.70
2018-07-23T19:06:23.847Z,58.50
2018-07-23T19:09:28.592Z,58.90
2018-07-23T19:12:32.653Z,59.50
2018-07-23T19:15:36.655Z,60.00
2018-07-23T19:18:40.805Z,60.70
2018-07-23T19:21:44.661Z,60.50
2018-07-23T19:24:48.649Z,60.90
2018-07-23T19:27:52.811Z,60.80
2018-07-23T19:30:56.845Z,60.90
2018-07-23T19:34:02.052Z,61.30
2018-07-23T19:37:06.027Z,61.30
2018-07-23T19:40:10.084Z,61.40
2018-07-23T19:43:14.179Z,62.00
2018-07-23T19:46:18.222Z,62.10
2018-07-23T19:49:22.156Z,62.20
2018-07-23T19:52:26.182Z,62.50
2018-07-23T19:55:30.150Z,62.50
2018-07-23T19:58:34.054Z,62.50
2018-07-23T20:01:38.001Z,62.60
2018-07-23T20:04:41.974Z,62.90
2018-07-23T20:07:45.883Z,63.00
2018-07-23T20:10:49.798Z,63.10
2018-07-23T20:13:53.779Z,63.20
2018-07-23T20:16:57.705Z,63.80
2018-07-23T20:20:01.609Z,63.70
2018-07-23T20:23:05.629Z,64.10
2018-07-23T20:26:09.627Z,64.40
2018-07-23T20:29:13.566Z,64.40
2018-07-23T20:32:17.528Z,64.40
2018-07-23T20:35:21.552Z,64.40
2018-07-23T20:38:25.514Z,64.40
2018-07-23T20:41:36.965Z,64.20
2018-07-23T20:44:40.928Z,64.10
2018-07-23T20:47:44.884Z,64.00
2018-07-23T20:50:50.967Z,63.80
2018-07-23T20:53:58.689Z,64.10
2018-07-23T20:57:03.056Z,64.20
2018-07-23T21:00:08.851Z,63.20
2018-07-23T21:03:12.906Z,63.80
2018-07-23T21:06:16.909Z,63.80
2018-07-23T21:09:20.801Z,63.40
2018-07-23T21:12:26.775Z,63.70
2018-07-23T21:15:32.239Z,63.80
2018-07-23T21:18:36.266Z,61.20
2018-07-23T21:21:43.133Z,61.80
2018-07-23T21:24:49.436Z,62.00
2018-07-23T21:27:56.727Z,60.00
2018-07-23T21:31:06.820Z,62.30
2018-07-23T21:34:10.981Z,62.20
2018-07-23T21:37:14.898Z,61.30
2018-07-23T21:40:18.828Z,60.90
2018-07-23T21:43:22.754Z,62.20
2018-07-23T21:46:26.647Z,62.50
2018-07-23T21:49:30.955Z,63.20
2018-07-23T21:52:34.830Z,62.90
2018-07-23T21:55:38.790Z,62.60
2018-07-23T21:58:42.907Z,62.80
2018-07-23T22:01:47.046Z,62.60
2018-07-23T22:04:51.010Z,62.10
2018-07-23T22:07:54.971Z,62.20
2018-07-23T22:10:58.884Z,62.20
2018-07-23T22:14:03.026Z,61.90
2018-07-23T22:17:07.058Z,61.60
2018-07-23T22:20:11.123Z,61.40
2018-07-23T22:23:15.075Z,61.20
2018-07-23T22:26:19.053Z,61.20
2018-07-23T22:29:22.957Z,60.50
2018-07-23T22:32:29.905Z,60.20
2018-07-23T22:35:33.794Z,60.20
2018-07-23T22:38:37.768Z,60.20
2018-07-23T22:41:41.845Z,60.20
2018-07-23T22:44:49.903Z,60.00
2018-07-23T22:47:53.953Z,60.40
2018-07-23T22:50:57.957Z,60.50
2018-07-23T22:54:01.926Z,60.70
2018-07-23T22:57:05.784Z,61.00
2018-07-23T23:00:09.824Z,61.30
2018-07-23T23:03:13.739Z,61.40
2018-07-23T23:06:17.763Z,61.70
2018-07-23T23:09:21.680Z,62.40
2018-07-23T23:12:25.581Z,62.50
2018-07-23T23:15:29.441Z,62.70
2018-07-23T23:18:33.355Z,62.70
2018-07-23T23:21:37.281Z,62.90
2018-07-23T23:24:41.161Z,63.20
2018-07-23T23:27:45.121Z,63.10
2018-07-23T23:30:48.961Z,63.20
2018-07-23T23:33:52.882Z,63.40
2018-07-23T23:36:56.801Z,63.50
2018-07-23T23:40:00.691Z,63.60
2018-07-23T23:43:04.611Z,64.10
2018-07-23T23:46:08.547Z,64.40
2018-07-23T23:49:13.123Z,64.40
2018-07-23T23:52:17.025Z,64.50
2018-07-23T23:55:20.942Z,64.60
2018-07-23T23:58:25.232Z,64.80
